createdAt,value
2019-06-01T00:00:10.314Z,15.10
2019-06-01T00:02:45.442Z,15.10
2019-06-01T00:05:28.644Z,15.00
2019-06-01T00:08:13.747Z,15.00
2019-06-01T00:10:58.464Z,15.20
2019-06-01T00:13:43.586Z,15.30
2019-06-01T00:16:37.682Z,15.20
2019-06-01T00:19:31.390Z,15.10
2019-06-01T00:22:16.058Z,15.00
2019-06-01T00:25:00.360Z,15.00
2019-06-01T00:27:44.899Z,15.00
2019-06-01T00:30:38.370Z,15.00
2019-06-01T00:33:22.698Z,15.00
2019-06-01T00:36:07.564Z,14.90
2019-06-01T00:38:52.177Z,14.90
2019-06-01T00:41:47.980Z,14.80
2019-06-01T00:44:42.234Z,14.80
2019-06-01T00:47:27.832Z,14.80
2019-06-01T00:50:21.454Z,15.00
2019-06-01T00:53:06.333Z,15.20
2019-06-01T00:55:51.608Z,15.30
2019-06-01T00:58:45.911Z,15.10
2019-06-01T01:01:39.430Z,14.90
2019-06-01T01:04:24.478Z,14.90
2019-06-01T01:07:09.403Z,14.90
2019-06-01T01:10:03.031Z,14.90
2019-06-01T01:13:07.380Z,14.80
2019-06-01T01:15:51.654Z,14.70
2019-06-01T01:18:36.699Z,14.70
2019-06-01T01:21:21.344Z,14.70
2019-06-01T01:24:05.796Z,14.70
2019-06-01T01:26:50.792Z,14.60
2019-06-01T01:29:35.583Z,14.60
2019-06-01T01:32:20.159Z,14.40
2019-06-01T01:35:05.134Z,14.40
2019-06-01T01:37:50.151Z,14.30
2019-06-01T01:40:34.823Z,14.30
2019-06-01T01:43:19.456Z,14.30
2019-06-01T01:46:04.299Z,14.30
2019-06-01T01:48:49.831Z,14.20
2019-06-01T01:51:44.003Z,14.20
2019-06-01T01:54:28.706Z,14.10
2019-06-01T01:57:13.224Z,14.20
2019-06-01T01:59:59.452Z,14.20
2019-06-01T02:02:45.647Z,14.20
2019-06-01T02:05:30.668Z,14.20
2019-06-01T02:08:15.089Z,14.10
2019-06-01T02:11:00.085Z,14.00
2019-06-01T02:13:44.652Z,13.90
2019-06-01T02:16:29.755Z,13.80
2019-06-01T02:19:14.455Z,13.80
2019-06-01T02:22:00.425Z,13.90
2019-06-01T02:24:45.504Z,13.90
2019-06-01T02:27:30.176Z,13.90
2019-06-01T02:30:14.805Z,13.90
2019-06-01T02:33:08.046Z,13.90
2019-06-01T02:35:54.201Z,13.80
2019-06-01T02:38:39.220Z,13.80
2019-06-01T02:41:23.647Z,13.70
2019-06-01T02:44:08.204Z,13.70
2019-06-01T02:47:03.865Z,13.80
2019-06-01T02:49:48.399Z,13.80
2019-06-01T02:52:42.104Z,13.80
2019-06-01T02:55:26.726Z,13.80
2019-06-01T02:58:11.557Z,13.70
2019-06-01T03:00:56.599Z,13.70
2019-06-01T03:03:41.271Z,13.70
2019-06-01T03:06:26.158Z,13.70
2019-06-01T03:09:10.463Z,13.70
2019-06-01T03:11:55.751Z,13.60
2019-06-01T03:14:40.731Z,13.60
2019-06-01T03:17:25.468Z,13.60
2019-06-01T03:20:09.830Z,13.60
2019-06-01T03:22:54.624Z,13.60
2019-06-01T03:25:39.387Z,13.60
2019-06-01T03:28:24.185Z,13.50
2019-06-01T03:31:10.512Z,13.50
2019-06-01T03:34:04.422Z,13.70
2019-06-01T03:36:49.610Z,13.70
2019-06-01T03:39:34.368Z,13.70
2019-06-01T03:42:18.678Z,13.70
2019-06-01T03:45:12.528Z,13.70
2019-06-01T03:47:57.806Z,13.60
2019-06-01T03:50:42.374Z,13.60
2019-06-01T03:53:35.859Z,13.60
2019-06-01T03:56:21.103Z,13.70
2019-06-01T03:59:14.840Z,13.90
2019-06-01T04:02:00.849Z,14.00
2019-06-01T04:04:45.887Z,14.00
2019-06-01T04:07:32.232Z,14.00
2019-06-01T04:10:17.170Z,14.10
2019-06-01T04:13:03.517Z,14.10
2019-06-01T04:15:48.628Z,14.10
2019-06-01T04:18:33.772Z,14.10
2019-06-01T04:21:27.284Z,14.20
2019-06-01T04:24:12.418Z,14.20
2019-06-01T04:27:06.642Z,14.20
2019-06-01T04:30:02.436Z,14.30
2019-06-01T04:32:50.286Z,14.30
2019-06-01T04:35:34.851Z,14.30
2019-06-01T04:38:19.865Z,14.40
2019-06-01T04:41:14.119Z,14.50
2019-06-01T04:44:00.467Z,14.60
2019-06-01T04:46:54.048Z,14.60
2019-06-01T04:49:39.067Z,14.70
2019-06-01T04:52:24.092Z,14.80
2019-06-01T04:55:17.878Z,14.90
2019-06-01T04:58:03.035Z,15.10
2019-06-01T05:00:56.780Z,15.20
2019-06-01T05:03:41.590Z,15.30
2019-06-01T05:06:25.791Z,15.40
2019-06-01T05:09:11.366Z,15.60
2019-06-01T05:11:55.948Z,15.70
2019-06-01T05:14:40.927Z,15.90
2019-06-01T05:17:25.647Z,16.10
2019-06-01T05:20:10.408Z,16.20
2019-06-01T05:22:55.364Z,16.30
2019-06-01T05:25:40.112Z,16.50
2019-06-01T05:28:24.739Z,16.60
2019-06-01T05:31:14.958Z,16.70
2019-06-01T05:34:05.868Z,16.90
2019-06-01T05:36:59.255Z,17.10
2019-06-01T05:39:43.798Z,17.40
2019-06-01T05:42:28.771Z,17.60
2019-06-01T05:45:17.123Z,17.70
2019-06-01T05:48:02.260Z,17.90
2019-06-01T05:50:56.162Z,18.10
2019-06-01T05:53:40.599Z,18.10
2019-06-01T05:56:25.245Z,18.40
2019-06-01T05:59:09.934Z,18.40
2019-06-01T06:01:55.018Z,18.60
2019-06-01T06:04:39.551Z,18.80
2019-06-01T06:07:24.860Z,18.90
2019-06-01T06:10:09.518Z,19.00
2019-06-01T06:12:54.364Z,19.20
2019-06-01T06:15:41.826Z,19.30
2019-06-01T06:18:26.471Z,19.40
2019-06-01T06:21:20.278Z,19.60
2019-06-01T06:24:14.305Z,19.70
2019-06-01T06:27:08.301Z,19.80
2019-06-01T06:29:52.998Z,19.90
2019-06-01T06:32:37.676Z,20.10
2019-06-01T06:35:22.344Z,20.20
2019-06-01T06:38:06.971Z,20.30
2019-06-01T06:40:52.014Z,20.40
2019-06-01T06:43:36.557Z,20.50
2019-06-01T06:46:20.805Z,20.60
2019-06-01T06:49:09.805Z,20.80
2019-06-01T06:52:02.145Z,20.90
2019-06-01T06:54:46.507Z,21.10
2019-06-01T06:57:31.311Z,21.20
2019-06-01T07:00:16.430Z,21.40
2019-06-01T07:03:00.865Z,21.50
2019-06-01T07:05:46.011Z,21.60
2019-06-01T07:08:30.167Z,21.60
2019-06-01T07:11:23.725Z,21.60
2019-06-01T07:14:08.378Z,21.70
2019-06-01T07:16:53.201Z,21.70
2019-06-01T07:19:37.619Z,21.90
2019-06-01T07:22:23.689Z,21.90
2019-06-01T07:25:08.428Z,21.90
2019-06-01T07:27:53.571Z,22.00
2019-06-01T07:30:49.678Z,22.10
2019-06-01T07:33:33.406Z,22.10
2019-06-01T07:36:27.114Z,22.10
2019-06-01T07:39:11.744Z,22.20
2019-06-01T07:41:56.807Z,22.20
2019-06-01T07:44:41.836Z,22.50
2019-06-01T07:47:35.426Z,22.50
2019-06-01T07:50:20.026Z,22.60
2019-06-01T07:53:14.795Z,22.60
2019-06-01T07:55:59.854Z,22.70
2019-06-01T07:58:53.471Z,22.70
2019-06-01T08:01:38.338Z,22.70
2019-06-01T08:04:24.292Z,22.80
2019-06-01T08:06:57.632Z,22.90
2019-06-01T08:09:49.947Z,23.00
2019-06-01T08:12:43.489Z,23.00
2019-06-01T08:15:28.362Z,23.10
2019-06-01T08:18:23.825Z,23.20
2019-06-01T08:21:11.119Z,23.20
2019-06-01T08:24:04.902Z,23.30
2019-06-01T08:26:49.894Z,23.50
2019-06-01T08:29:44.151Z,23.50
2019-06-01T08:32:38.015Z,23.60
2019-06-01T08:35:22.848Z,23.60
2019-06-01T08:38:16.539Z,23.70
2019-06-01T08:41:01.670Z,23.90
2019-06-01T08:43:46.496Z,23.80
2019-06-01T08:46:31.717Z,23.90
2019-06-01T08:49:25.912Z,23.80
2019-06-01T08:52:19.327Z,23.80
2019-06-01T08:55:04.102Z,23.90
2019-06-01T08:57:48.671Z,24.00
2019-06-01T09:00:34.753Z,24.10
2019-06-01T09:03:19.558Z,24.20
2019-06-01T09:06:04.212Z,24.20
2019-06-01T09:08:57.610Z,24.20
2019-06-01T09:11:43.538Z,24.40
2019-06-01T09:14:29.179Z,24.30
2019-06-01T09:17:23.020Z,24.40
2019-06-01T09:20:07.623Z,24.50
2019-06-01T09:22:52.687Z,24.60
2019-06-01T09:25:37.652Z,24.60
2019-06-01T09:28:32.024Z,24.60
2019-06-01T09:31:26.233Z,24.70
2019-06-01T09:34:11.422Z,24.70
2019-06-01T09:36:55.850Z,24.70
2019-06-01T09:39:49.169Z,24.80
2019-06-01T09:42:35.163Z,24.90
2019-06-01T09:45:19.676Z,24.90
2019-06-01T09:48:13.279Z,25.00
2019-06-01T09:50:57.782Z,25.10
2019-06-01T09:53:42.337Z,25.30
2019-06-01T09:56:29.041Z,25.50
2019-06-01T09:59:13.314Z,25.70
2019-06-01T10:01:58.017Z,25.90
2019-06-01T10:04:43.152Z,26.10
2019-06-01T10:07:29.174Z,26.20
2019-06-01T10:10:14.396Z,26.30
2019-06-01T10:12:58.811Z,26.50
2019-06-01T10:15:43.511Z,26.70
2019-06-01T10:18:28.129Z,26.90
2019-06-01T10:21:21.420Z,27.20
2019-06-01T10:24:06.579Z,27.30
2019-06-01T10:26:53.722Z,27.50
2019-06-01T10:29:39.987Z,27.60
2019-06-01T10:32:24.775Z,27.80
2019-06-01T10:35:18.431Z,27.90
2019-06-01T10:38:12.002Z,28.00
2019-06-01T10:40:56.739Z,28.10
2019-06-01T10:43:41.784Z,28.10
2019-06-01T10:46:26.824Z,28.20
2019-06-01T10:49:11.420Z,28.40
2019-06-01T10:51:56.285Z,28.40
2019-06-01T10:54:42.485Z,28.60
2019-06-01T10:57:27.299Z,28.80
2019-06-01T11:00:12.754Z,29.10
2019-06-01T11:03:06.376Z,29.20
2019-06-01T11:05:51.206Z,29.50
2019-06-01T11:08:37.146Z,29.70
2019-06-01T11:11:32.705Z,29.90
2019-06-01T11:14:17.243Z,30.20
2019-06-01T11:17:11.048Z,30.20
2019-06-01T11:19:56.646Z,30.40
2019-06-01T11:22:41.581Z,30.50
2019-06-01T11:25:26.156Z,30.60
2019-06-01T11:28:10.895Z,30.60
2019-06-01T11:30:55.594Z,30.80
2019-06-01T11:33:40.368Z,30.80
2019-06-01T11:36:25.099Z,30.90
2019-06-01T11:39:09.676Z,30.90
2019-06-01T11:42:03.024Z,31.10
2019-06-01T11:44:47.790Z,31.40
2019-06-01T11:47:32.444Z,31.50
2019-06-01T11:50:26.903Z,31.60
2019-06-01T11:53:11.739Z,31.70
2019-06-01T11:55:57.599Z,32.00
2019-06-01T11:58:52.570Z,32.00
2019-06-01T12:01:46.845Z,32.00
2019-06-01T12:04:41.961Z,32.20
2019-06-01T12:07:26.521Z,32.40
2019-06-01T12:10:11.247Z,32.60
2019-06-01T12:12:55.644Z,32.60
2019-06-01T12:15:48.958Z,32.50
2019-06-01T12:18:33.599Z,32.60
2019-06-01T12:21:18.244Z,32.80
2019-06-01T12:24:02.794Z,33.00
2019-06-01T12:26:47.729Z,33.20
2019-06-01T12:29:32.230Z,33.50
2019-06-01T12:32:17.053Z,33.60
2019-06-01T12:35:10.324Z,33.80
2019-06-01T12:38:05.425Z,34.10
2019-06-01T12:40:41.295Z,34.10
2019-06-01T12:43:25.932Z,34.10
2019-06-01T12:46:10.932Z,34.10
2019-06-01T12:48:55.847Z,33.90
2019-06-01T12:51:40.718Z,33.60
2019-06-01T12:54:26.120Z,33.90
2019-06-01T12:57:19.515Z,33.90
2019-06-01T13:00:04.480Z,33.90
2019-06-01T13:02:56.309Z,33.90
2019-06-01T13:05:35.128Z,33.90
2019-06-01T13:08:20.030Z,33.60
2019-06-01T13:11:04.841Z,33.60
2019-06-01T13:13:49.489Z,33.80
2019-06-01T13:16:34.547Z,33.80
2019-06-01T13:19:18.900Z,33.80
2019-06-01T13:22:13.418Z,33.80
2019-06-01T13:24:57.947Z,34.00
2019-06-01T13:27:52.489Z,34.00
2019-06-01T13:30:36.999Z,33.80
2019-06-01T13:33:21.451Z,34.10
2019-06-01T13:36:15.655Z,34.50
2019-06-01T13:39:09.022Z,35.00
2019-06-01T13:41:53.537Z,35.10
2019-06-01T13:44:38.671Z,34.80
2019-06-01T13:47:23.582Z,34.70
2019-06-01T13:50:08.464Z,34.70
2019-06-01T13:52:54.186Z,34.80
2019-06-01T13:55:40.518Z,34.80
2019-06-01T13:58:25.695Z,34.90
2019-06-01T14:01:10.111Z,35.10
2019-06-01T14:03:55.753Z,35.20
2019-06-01T14:06:41.005Z,35.00
2019-06-01T14:09:34.708Z,34.60
2019-06-01T14:12:19.587Z,34.20
2019-06-01T14:15:04.020Z,34.20
2019-06-01T14:17:50.291Z,34.20
2019-06-01T14:20:35.270Z,34.20
2019-06-01T14:23:20.140Z,34.10
2019-06-01T14:26:04.650Z,34.10
2019-06-01T14:28:50.149Z,34.30
2019-06-01T14:31:44.291Z,34.10
2019-06-01T14:34:37.893Z,33.90
2019-06-01T14:37:23.075Z,34.10
2019-06-01T14:40:07.483Z,34.30
2019-06-01T14:42:53.637Z,34.30
2019-06-01T14:45:39.051Z,34.60
2019-06-01T14:48:23.491Z,34.90
2019-06-01T14:51:07.792Z,35.00
2019-06-01T14:53:53.685Z,35.20
2019-06-01T14:56:47.659Z,35.30
2019-06-01T14:59:41.407Z,35.40
2019-06-01T15:02:25.933Z,35.50
2019-06-01T15:05:11.354Z,35.60
2019-06-01T15:07:57.071Z,35.60
2019-06-01T15:10:42.279Z,35.60
2019-06-01T15:13:27.152Z,35.60
2019-06-01T15:16:11.980Z,35.60
2019-06-01T15:18:57.690Z,35.50
2019-06-01T15:21:42.255Z,35.60
2019-06-01T15:24:35.483Z,35.60
2019-06-01T15:27:19.768Z,35.50
2019-06-01T15:30:04.184Z,35.40
2019-06-01T15:32:58.250Z,35.10
2019-06-01T15:35:53.489Z,34.70
2019-06-01T15:38:38.633Z,34.60
2019-06-01T15:41:32.830Z,34.60
2019-06-01T15:44:26.772Z,34.60
2019-06-01T15:47:11.983Z,34.60
2019-06-01T15:50:05.569Z,34.60
2019-06-01T15:52:50.039Z,34.70
2019-06-01T15:55:34.627Z,34.90
2019-06-01T15:58:19.017Z,35.10
2019-06-01T16:01:04.867Z,35.10
2019-06-01T16:03:49.385Z,35.00
2019-06-01T16:06:34.312Z,35.20
2019-06-01T16:09:18.987Z,35.30
2019-06-01T16:12:03.848Z,35.40
2019-06-01T16:14:48.660Z,35.40
2019-06-01T16:17:33.544Z,35.40
2019-06-01T16:20:18.435Z,35.30
2019-06-01T16:23:02.642Z,35.30
2019-06-01T16:25:59.657Z,35.30
2019-06-01T16:28:33.663Z,35.30
2019-06-01T16:31:18.007Z,35.20
2019-06-01T16:34:11.829Z,35.10
2019-06-01T16:36:56.812Z,35.00
2019-06-01T16:39:57.937Z,34.80
2019-06-01T16:42:29.007Z,34.70
2019-06-01T16:45:13.430Z,34.50
2019-06-01T16:47:59.274Z,34.60
2019-06-01T16:50:53.283Z,34.50
2019-06-01T16:53:38.175Z,34.30
2019-06-01T16:56:31.984Z,34.00
2019-06-01T16:59:17.093Z,33.90
2019-06-01T17:02:03.357Z,33.80
2019-06-01T17:04:48.010Z,33.50
2019-06-01T17:07:33.215Z,33.20
2019-06-01T17:10:28.028Z,33.20
2019-06-01T17:13:13.282Z,33.20
2019-06-01T17:15:58.904Z,33.20
2019-06-01T17:18:52.819Z,33.20
2019-06-01T17:21:46.931Z,32.90
2019-06-01T17:24:31.747Z,32.80
2019-06-01T17:27:25.359Z,32.80
2019-06-01T17:30:12.127Z,32.80
2019-06-01T17:32:58.186Z,32.70
2019-06-01T17:35:43.589Z,32.50
2019-06-01T17:38:37.426Z,32.50
2019-06-01T17:41:22.046Z,32.60
2019-06-01T17:43:56.135Z,32.60
2019-06-01T17:47:27.369Z,32.30
2019-06-01T17:50:36.450Z,32.10
2019-06-01T17:53:30.024Z,31.90
2019-06-01T17:56:15.219Z,31.70
2019-06-01T17:59:09.437Z,31.50
2019-06-01T18:02:03.636Z,31.40
2019-06-01T18:04:49.738Z,31.50
2019-06-01T18:07:44.236Z,31.20
2019-06-01T18:10:52.659Z,30.70
2019-06-01T18:13:24.086Z,30.30
2019-06-01T18:16:08.552Z,30.10
2019-06-01T18:18:53.162Z,29.90
2019-06-01T18:21:37.691Z,29.80
2019-06-01T18:24:31.006Z,29.60
2019-06-01T18:27:15.643Z,29.50
2019-06-01T18:30:08.796Z,29.50
2019-06-01T18:32:54.102Z,29.40
2019-06-01T18:35:44.776Z,29.20
2019-06-01T18:38:29.647Z,29.00
2019-06-01T18:41:18.617Z,28.80
2019-06-01T18:44:00.604Z,28.50
2019-06-01T18:46:44.856Z,28.00
2019-06-01T18:49:29.859Z,27.60
2019-06-01T18:52:14.884Z,27.30
2019-06-01T18:55:00.400Z,26.70
2019-06-01T18:57:53.756Z,26.40
2019-06-01T19:00:39.945Z,26.40
2019-06-01T19:03:25.009Z,26.20
2019-06-01T19:05:58.430Z,25.90
2019-06-01T19:08:50.400Z,25.70
2019-06-01T19:11:45.195Z,25.40
2019-06-01T19:14:29.925Z,25.10
2019-06-01T19:17:14.459Z,24.80
2019-06-01T19:19:59.003Z,24.50
2019-06-01T19:22:44.303Z,24.30
2019-06-01T19:25:29.163Z,24.10
2019-06-01T19:28:15.412Z,23.90
2019-06-01T19:31:11.118Z,23.50
2019-06-01T19:33:55.707Z,23.30
2019-06-01T19:36:40.524Z,23.00
2019-06-01T19:39:25.987Z,22.80
2019-06-01T19:42:19.799Z,22.70
2019-06-01T19:45:04.453Z,22.40
2019-06-01T19:47:49.880Z,22.30
2019-06-01T19:50:43.686Z,22.10
2019-06-01T19:53:28.373Z,22.10
2019-06-01T19:56:12.943Z,22.30
2019-06-01T19:58:57.886Z,22.10
2019-06-01T20:01:42.754Z,21.90
2019-06-01T20:04:27.588Z,21.70
2019-06-01T20:07:00.875Z,21.50
2019-06-01T20:09:52.840Z,21.30
2019-06-01T20:12:46.647Z,21.10
2019-06-01T20:15:31.551Z,21.00
2019-06-01T20:18:17.185Z,20.90
2019-06-01T20:21:02.361Z,20.70
2019-06-01T20:23:47.032Z,20.70
2019-06-01T20:26:42.060Z,20.50
2019-06-01T20:29:19.682Z,20.40
2019-06-01T20:32:04.732Z,20.30
2019-06-01T20:34:49.448Z,20.10
2019-06-01T20:37:34.856Z,20.10
2019-06-01T20:40:20.381Z,20.10
2019-06-01T20:43:05.369Z,20.10
2019-06-01T20:45:50.567Z,20.40
2019-06-01T20:48:35.783Z,20.50
2019-06-01T20:51:29.825Z,20.30
2019-06-01T20:54:23.959Z,20.20
2019-06-01T20:57:17.885Z,20.00
2019-06-01T21:00:03.071Z,19.80
2019-06-01T21:02:48.167Z,19.70
2019-06-01T21:05:41.674Z,19.60
2019-06-01T21:08:26.190Z,19.70
2019-06-01T21:11:10.827Z,19.60
2019-06-01T21:13:55.772Z,19.60
2019-06-01T21:16:41.044Z,19.60
2019-06-01T21:19:35.067Z,19.40
2019-06-01T21:22:20.633Z,19.50
2019-06-01T21:25:05.044Z,19.70
2019-06-01T21:27:58.825Z,19.80
2019-06-01T21:30:43.408Z,19.90
2019-06-01T21:33:28.895Z,19.90
2019-06-01T21:36:15.303Z,19.90
2019-06-01T21:39:00.956Z,20.00
2019-06-01T21:41:47.760Z,20.00
2019-06-01T21:44:42.094Z,19.60
2019-06-01T21:47:35.779Z,19.60
2019-06-01T21:50:21.900Z,19.60
2019-06-01T21:53:06.937Z,19.40
2019-06-01T21:55:51.612Z,19.20
2019-06-01T21:58:36.869Z,19.10
2019-06-01T22:01:30.719Z,19.10
2019-06-01T22:04:16.628Z,19.00
2019-06-01T22:07:00.956Z,18.90
2019-06-01T22:09:54.374Z,18.90
2019-06-01T22:12:39.306Z,19.00
2019-06-01T22:15:24.344Z,18.90
2019-06-01T22:18:19.478Z,18.80
2019-06-01T22:21:04.749Z,18.60
2019-06-01T22:23:59.071Z,18.50
2019-06-01T22:26:52.874Z,18.60
2019-06-01T22:29:37.639Z,18.50
2019-06-01T22:32:25.683Z,18.40
2019-06-01T22:35:08.237Z,18.30
2019-06-01T22:37:53.103Z,18.40
2019-06-01T22:40:37.935Z,18.40
2019-06-01T22:43:39.245Z,18.30
2019-06-01T22:46:09.088Z,18.20
2019-06-01T22:48:53.687Z,18.20
2019-06-01T22:51:38.311Z,18.10
2019-06-01T22:54:31.940Z,18.10
2019-06-01T22:57:26.557Z,18.10
2019-06-01T23:00:11.146Z,17.90
2019-06-01T23:03:04.411Z,17.90
2019-06-01T23:05:49.380Z,17.80
2019-06-01T23:08:34.452Z,17.80
2019-06-01T23:11:19.264Z,17.80
2019-06-01T23:14:03.704Z,17.80
2019-06-01T23:16:48.542Z,17.80
2019-06-01T23:19:33.283Z,17.80
2019-06-01T23:22:18.067Z,17.90
2019-06-01T23:25:02.463Z,17.90
2019-06-01T23:27:47.860Z,17.90
2019-06-01T23:30:32.795Z,17.90
2019-06-01T23:33:17.487Z,17.90
2019-06-01T23:36:02.305Z,17.90
2019-06-01T23:38:47.096Z,17.80
2019-06-01T23:41:32.877Z,17.70
2019-06-01T23:44:18.051Z,17.60
2019-06-01T23:47:03.215Z,17.60
2019-06-01T23:49:48.553Z,17.60
2019-06-01T23:52:42.109Z,17.50
2019-06-01T23:55:27.753Z,17.50
2019-06-01T23:58:12.708Z,17.40
